Time;durP1;ratioP1;P1;durP2;ratioP2;P2;SDS_P1;SDS_P2;PMS_P1;PMS_P2;Temp;Humidity;BMP_temperature;BMP_pressure;BME280_temperature;BME280_humidity;BME280_pressure;Samples;Min_cycle;Max_cycle;Signal;HPM_P1;HPM_P2
2022/07/28 00:00:01;;;;;;;2.78;1.70;;;;;;;;;;5021005;28;20061;-86
2022/07/28 00:02:27;;;;;;;4.25;2.00;;;;;;;;;;5020924;28;20034;-86
2022/07/28 00:04:52;;;;;;;2.15;1.70;;;;;;;;;;5020334;28;20045;-86
2022/07/28 00:07:18;;;;;;;3.53;1.90;;;;;;;;;;5038823;28;20375;-86
2022/07/28 00:09:44;;;;;;;3.22;1.65;;;;;;;;;;5037279;28;20398;-86
2022/07/28 00:12:10;;;;;;;2.85;1.80;;;;;;;;;;5038405;28;20494;-86
2022/07/28 00:14:35;;;;;;;4.35;1.75;;;;;;;;;;5037660;28;20053;-86
2022/07/28 00:17:01;;;;;;;3.80;1.80;;;;;;;;;;5038840;28;20042;-85
2022/07/28 00:19:26;;;;;;;5.38;1.80;;;;;;;;;;5037740;28;20029;-85
2022/07/28 00:21:52;;;;;;;2.28;1.70;;;;;;;;;;5021122;28;20494;-86
2022/07/28 00:24:17;;;;;;;3.72;1.70;;;;;;;;;;5038179;28;20021;-85
2022/07/28 00:26:43;;;;;;;3.63;1.90;;;;;;;;;;5038266;28;20123;-85
2022/07/28 00:29:08;;;;;;;3.15;1.80;;;;;;;;;;5038493;28;20025;-86
2022/07/28 00:31:34;;;;;;;2.70;1.80;;;;;;;;;;5038407;28;20067;-85
2022/07/28 00:33:59;;;;;;;2.42;1.60;;;;;;;;;;5037786;28;20033;-85
2022/07/28 00:36:25;;;;;;;3.75;1.70;;;;;;;;;;5037621;28;20038;-85
2022/07/28 00:38:51;;;;;;;2.53;1.80;;;;;;;;;;5038256;28;20052;-86
2022/07/28 00:41:18;;;;;;;3.45;2.03;;;;;;;;;;5020148;28;20033;-85
2022/07/28 00:43:46;;;;;;;2.78;1.60;;;;;;;;;;5037695;28;20410;-85
2022/07/28 00:46:13;;;;;;;2.28;1.98;;;;;;;;;;5037106;28;20037;-86
2022/07/28 00:48:41;;;;;;;3.55;1.80;;;;;;;;;;5037643;28;20086;-86
2022/07/28 00:51:08;;;;;;;2.30;1.90;;;;;;;;;;5019940;28;20033;-86
2022/07/28 00:53:34;;;;;;;2.95;1.98;;;;;;;;;;5037762;28;20040;-86
2022/07/28 00:56:00;;;;;;;2.42;2.10;;;;;;;;;;5019089;28;20037;-86
2022/07/28 00:58:27;;;;;;;4.47;2.15;;;;;;;;;;5020066;28;20047;-85
2022/07/28 01:00:53;;;;;;;2.33;1.90;;;;;;;;;;5037667;28;20099;-86
2022/07/28 01:03:19;;;;;;;2.42;1.90;;;;;;;;;;5020041;28;20083;-86
2022/07/28 01:05:57;;;;;;;2.90;2.03;;;;;;;;;;5037364;28;20026;-85
2022/07/28 01:08:41;;;;;;;3.67;1.95;;;;;;;;;;5036709;28;20175;-85
2022/07/28 01:11:20;;;;;;;3.97;2.10;;;;;;;;;;5037543;28;20494;-86
2022/07/28 01:13:54;;;;;;;4.28;2.10;;;;;;;;;;5037692;28;20045;-86
2022/07/28 01:16:19;;;;;;;2.85;2.00;;;;;;;;;;5036245;28;20029;-86
2022/07/28 01:19:00;;;;;;;4.28;1.90;;;;;;;;;;5037464;28;20106;-86
2022/07/28 01:21:33;;;;;;;2.97;2.13;;;;;;;;;;5019466;28;20041;-84
2022/07/28 01:24:26;;;;;;;3.47;1.80;;;;;;;;;;5036993;28;20108;-85
2022/07/28 01:26:59;;;;;;;3.03;2.00;;;;;;;;;;5019158;28;20060;-86
2022/07/28 01:29:59;;;;;;;3.97;1.90;;;;;;;;;;5019394;28;20053;-85
2022/07/28 01:32:27;;;;;;;3.28;2.08;;;;;;;;;;5036778;28;20087;-85
2022/07/28 01:34:59;;;;;;;4.65;1.83;;;;;;;;;;5018549;28;20033;-86
2022/07/28 01:37:28;;;;;;;2.28;1.90;;;;;;;;;;5002669;28;20033;-86
2022/07/28 01:39:58;;;;;;;2.50;1.80;;;;;;;;;;5018741;28;20021;-86
2022/07/28 01:42:29;;;;;;;4.35;1.80;;;;;;;;;;5036747;28;20041;-85
2022/07/28 01:44:57;;;;;;;2.95;1.88;;;;;;;;;;5035407;28;20048;-85
2022/07/28 01:47:26;;;;;;;4.05;1.90;;;;;;;;;;5018861;28;20025;-85
2022/07/28 01:49:54;;;;;;;3.13;1.83;;;;;;;;;;5018649;28;20068;-85
2022/07/28 01:52:22;;;;;;;3.72;1.90;;;;;;;;;;5036543;28;20042;-85
2022/07/28 01:54:49;;;;;;;3.42;1.90;;;;;;;;;;5035293;28;20486;-85
2022/07/28 01:57:16;;;;;;;2.53;1.90;;;;;;;;;;5018650;28;20039;-85
2022/07/28 01:59:44;;;;;;;4.45;1.85;;;;;;;;;;5018950;28;20516;-85
2022/07/28 02:02:11;;;;;;;3.63;2.03;;;;;;;;;;5035972;28;20037;-85
2022/07/28 02:04:39;;;;;;;3.25;2.08;;;;;;;;;;5035847;28;20057;-85
2022/07/28 02:07:06;;;;;;;3.60;1.90;;;;;;;;;;5018278;28;20092;-85
2022/07/28 02:09:34;;;;;;;2.88;1.85;;;;;;;;;;5035168;28;20037;-85
2022/07/28 02:12:01;;;;;;;4.90;2.08;;;;;;;;;;5018335;28;20033;-85
2022/07/28 02:14:28;;;;;;;5.10;2.00;;;;;;;;;;5017168;28;20037;-85
2022/07/28 02:17:00;;;;;;;4.03;1.83;;;;;;;;;;5036030;28;20034;-85
2022/07/28 02:19:28;;;;;;;4.20;2.00;;;;;;;;;;5035562;28;20048;-84
2022/07/28 02:21:55;;;;;;;2.75;1.90;;;;;;;;;;5036044;28;20029;-85
2022/07/28 02:24:25;;;;;;;3.63;1.95;;;;;;;;;;5035173;28;20475;-85
2022/07/28 02:26:59;;;;;;;3.53;2.20;;;;;;;;;;5036846;28;20052;-85
2022/07/28 02:29:27;;;;;;;2.75;1.90;;;;;;;;;;5035608;28;20057;-85
2022/07/28 02:32:00;;;;;;;4.35;2.05;;;;;;;;;;5035804;28;20037;-86
2022/07/28 02:34:27;;;;;;;2.60;1.98;;;;;;;;;;5035087;28;20128;-85
2022/07/28 02:36:58;;;;;;;4.13;2.10;;;;;;;;;;5035516;28;20048;-85
2022/07/28 02:39:36;;;;;;;3.38;2.08;;;;;;;;;;5017172;28;20053;-86
2022/07/28 02:42:11;;;;;;;2.28;1.85;;;;;;;;;;5035264;28;20045;-85
2022/07/28 02:44:43;;;;;;;2.65;1.80;;;;;;;;;;5034228;28;20057;-85
2022/07/28 02:47:13;;;;;;;5.72;1.90;;;;;;;;;;5035158;28;20029;-86
2022/07/28 02:49:40;;;;;;;4.68;2.40;;;;;;;;;;5035331;28;20049;-86
2022/07/28 02:52:08;;;;;;;3.60;2.00;;;;;;;;;;5035014;28;20041;-86
2022/07/28 02:54:35;;;;;;;2.20;1.80;;;;;;;;;;5034523;28;20538;-85
2022/07/28 02:57:02;;;;;;;3.60;2.00;;;;;;;;;;5034304;28;20036;-85
2022/07/28 02:59:28;;;;;;;5.57;1.90;;;;;;;;;;5034970;28;20041;-85
2022/07/28 03:01:55;;;;;;;2.67;1.80;;;;;;;;;;5035399;28;20099;-85
2022/07/28 03:07:07;;;;;;;3.45;1.80;;;;;;;;;;5035399;28;20033;-85
2022/07/28 03:09:40;;;;;;;2.60;2.00;;;;;;;;;;5034048;28;20041;-85
2022/07/28 03:12:08;;;;;;;2.30;1.95;;;;;;;;;;5034398;28;20041;-85
2022/07/28 03:14:33;;;;;;;5.10;2.10;;;;;;;;;;5034239;28;20049;-85
2022/07/28 03:16:59;;;;;;;4.47;1.90;;;;;;;;;;5034837;28;20060;-85
2022/07/28 03:19:24;;;;;;;2.30;1.75;;;;;;;;;;5035020;28;20065;-85
2022/07/28 03:21:51;;;;;;;2.97;2.00;;;;;;;;;;5034909;28;20037;-85
2022/07/28 03:24:21;;;;;;;3.42;2.00;;;;;;;;;;5034231;28;20037;-84
2022/07/28 03:26:58;;;;;;;2.72;2.10;;;;;;;;;;5034897;28;20033;-85
2022/07/28 03:29:26;;;;;;;2.58;1.92;;;;;;;;;;5034672;28;20033;-85
2022/07/28 03:31:55;;;;;;;2.92;1.92;;;;;;;;;;5035210;28;20029;-85
2022/07/28 03:34:22;;;;;;;4.72;2.05;;;;;;;;;;5033919;28;20443;-85
2022/07/28 03:37:00;;;;;;;3.50;1.83;;;;;;;;;;5016845;28;20033;-85
2022/07/28 03:39:28;;;;;;;2.72;2.00;;;;;;;;;;5016848;28;20033;-85
2022/07/28 03:41:54;;;;;;;5.10;2.10;;;;;;;;;;5034978;28;20064;-85
2022/07/28 03:44:21;;;;;;;4.30;1.70;;;;;;;;;;5032722;28;20037;-85
2022/07/28 03:46:47;;;;;;;2.50;1.90;;;;;;;;;;5034527;28;20053;-85
2022/07/28 03:49:13;;;;;;;3.75;1.90;;;;;;;;;;5034683;28;20079;-85
2022/07/28 03:51:38;;;;;;;2.90;1.80;;;;;;;;;;5016933;28;20041;-84
2022/07/28 03:54:03;;;;;;;3.13;2.00;;;;;;;;;;5016458;28;20505;-84
2022/07/28 03:56:29;;;;;;;3.13;1.90;;;;;;;;;;5033988;28;20125;-85
2022/07/28 03:58:57;;;;;;;2.92;2.00;;;;;;;;;;5034916;28;20116;-85
2022/07/28 04:01:23;;;;;;;3.22;2.00;;;;;;;;;;5016839;28;20064;-85
2022/07/28 04:03:48;;;;;;;4.18;1.77;;;;;;;;;;5016915;28;20494;-85
2022/07/28 04:06:14;;;;;;;3.78;1.90;;;;;;;;;;5034037;28;20505;-84
2022/07/28 04:08:40;;;;;;;4.32;2.10;;;;;;;;;;5035224;28;20155;-85
2022/07/28 04:11:06;;;;;;;4.47;2.00;;;;;;;;;;5020279;28;20037;-85
2022/07/28 04:13:33;;;;;;;2.47;1.73;;;;;;;;;;5019846;28;20037;-85
2022/07/28 04:15:59;;;;;;;3.97;2.08;;;;;;;;;;5037484;28;20087;-85
2022/07/28 04:18:24;;;;;;;3.00;2.00;;;;;;;;;;5020345;28;20033;-85
2022/07/28 04:20:50;;;;;;;2.47;1.80;;;;;;;;;;5020576;28;20041;-85
2022/07/28 04:23:17;;;;;;;4.10;2.20;;;;;;;;;;5020281;28;20517;-85
2022/07/28 04:25:43;;;;;;;4.40;1.90;;;;;;;;;;5037527;28;20033;-85
2022/07/28 04:28:08;;;;;;;2.63;2.00;;;;;;;;;;5037650;28;20476;-85
2022/07/28 04:30:34;;;;;;;6.53;2.33;;;;;;;;;;5037708;28;20037;-84
2022/07/28 04:32:59;;;;;;;4.88;2.03;;;;;;;;;;5019669;28;20037;-85
2022/07/28 04:35:27;;;;;;;2.63;2.28;;;;;;;;;;5037143;28;20037;-85
2022/07/28 04:37:57;;;;;;;3.63;2.50;;;;;;;;;;5037924;28;20088;-85
2022/07/28 04:40:23;;;;;;;3.05;2.08;;;;;;;;;;5019837;28;20452;-85
2022/07/28 04:42:49;;;;;;;2.83;2.20;;;;;;;;;;5019890;28;20034;-85
2022/07/28 04:45:14;;;;;;;3.28;2.20;;;;;;;;;;5019448;28;20131;-85
2022/07/28 04:47:40;;;;;;;5.35;2.20;;;;;;;;;;5037187;28;20029;-85
2022/07/28 04:50:08;;;;;;;3.28;2.40;;;;;;;;;;5037149;28;20037;-85
2022/07/28 04:52:34;;;;;;;3.78;2.20;;;;;;;;;;5037360;28;20059;-85
2022/07/28 04:55:00;;;;;;;3.75;2.20;;;;;;;;;;5019510;28;20545;-84
2022/07/28 04:57:27;;;;;;;3.47;2.15;;;;;;;;;;5019675;28;20060;-84
2022/07/28 04:59:53;;;;;;;3.97;2.15;;;;;;;;;;5019458;28;20037;-85
2022/07/28 05:02:19;;;;;;;3.17;2.00;;;;;;;;;;5036756;28;20037;-85
2022/07/28 05:04:45;;;;;;;2.28;1.80;;;;;;;;;;5036456;28;20086;-84
2022/07/28 05:07:10;;;;;;;3.38;2.03;;;;;;;;;;5036607;28;20108;-85
2022/07/28 05:09:36;;;;;;;4.55;2.20;;;;;;;;;;5018275;28;20494;-84
2022/07/28 05:12:04;;;;;;;3.58;2.00;;;;;;;;;;5019242;28;20056;-84
2022/07/28 05:14:29;;;;;;;6.22;2.20;;;;;;;;;;5017972;28;20486;-85
2022/07/28 05:16:54;;;;;;;2.65;1.90;;;;;;;;;;5036786;28;20033;-85
2022/07/28 05:19:20;;;;;;;4.63;2.30;;;;;;;;;;5036610;28;20079;-85
2022/07/28 05:21:45;;;;;;;3.42;2.20;;;;;;;;;;5036818;28;20030;-85
2022/07/28 05:24:12;;;;;;;3.42;2.05;;;;;;;;;;5035742;28;20116;-85
2022/07/28 05:26:38;;;;;;;4.50;2.50;;;;;;;;;;5036479;28;20033;-85
2022/07/28 05:29:04;;;;;;;4.15;2.58;;;;;;;;;;5019000;28;20029;-85
2022/07/28 05:31:30;;;;;;;7.22;3.00;;;;;;;;;;5036518;28;20037;-85
2022/07/28 05:33:55;;;;;;;3.97;2.60;;;;;;;;;;5018767;28;20032;-82
2022/07/28 05:36:21;;;;;;;7.35;2.88;;;;;;;;;;5018630;28;20026;-85
2022/07/28 05:38:46;;;;;;;4.40;2.65;;;;;;;;;;5036357;28;20474;-85
2022/07/28 05:41:12;;;;;;;6.80;3.00;;;;;;;;;;5035848;28;20033;-85
2022/07/28 05:43:38;;;;;;;6.80;3.50;;;;;;;;;;5018254;28;20037;-85
2022/07/28 05:46:04;;;;;;;4.57;3.60;;;;;;;;;;5035663;28;20033;-85
2022/07/28 05:48:30;;;;;;;6.97;3.75;;;;;;;;;;5036333;28;20041;-86
2022/07/28 05:50:55;;;;;;;10.60;3.35;;;;;;;;;;5035896;28;20628;-85
2022/07/28 05:53:21;;;;;;;6.97;3.33;;;;;;;;;;5018479;28;20037;-85
2022/07/28 05:55:47;;;;;;;5.22;2.95;;;;;;;;;;5018091;28;20093;-85
2022/07/28 05:58:12;;;;;;;5.30;3.17;;;;;;;;;;5017591;28;20487;-85
2022/07/28 06:00:38;;;;;;;5.03;3.20;;;;;;;;;;5018915;28;20029;-85
2022/07/28 06:03:04;;;;;;;7.35;3.08;;;;;;;;;;5018564;28;20466;-85
2022/07/28 06:05:31;;;;;;;4.85;2.63;;;;;;;;;;5017853;28;20040;-85
2022/07/28 06:07:57;;;;;;;3.80;2.67;;;;;;;;;;5018959;28;20087;-82
2022/07/28 06:10:25;;;;;;;6.13;2.67;;;;;;;;;;5034539;28;20108;-83
2022/07/28 06:12:53;;;;;;;6.53;2.80;;;;;;;;;;5018101;28;20037;-83
2022/07/28 06:15:26;;;;;;;4.40;2.60;;;;;;;;;;5034917;28;20040;-83
2022/07/28 06:17:54;;;;;;;4.63;3.00;;;;;;;;;;5017287;28;20037;-83
2022/07/28 06:20:23;;;;;;;6.28;2.50;;;;;;;;;;5035470;28;20096;-83
2022/07/28 06:22:51;;;;;;;3.10;2.67;;;;;;;;;;5035133;28;20499;-84
2022/07/28 06:25:19;;;;;;;4.60;2.58;;;;;;;;;;5035186;28;20029;-84
2022/07/28 06:27:46;;;;;;;6.05;2.63;;;;;;;;;;5035395;28;20044;-84
2022/07/28 06:30:11;;;;;;;4.18;2.42;;;;;;;;;;5035770;28;20067;-84
2022/07/28 06:32:37;;;;;;;4.18;2.50;;;;;;;;;;5035023;28;20116;-84
2022/07/28 06:35:03;;;;;;;4.05;2.70;;;;;;;;;;5035134;28;20029;-84
2022/07/28 06:37:29;;;;;;;5.57;2.45;;;;;;;;;;5017134;28;20037;-84
2022/07/28 06:39:54;;;;;;;5.47;2.60;;;;;;;;;;5035124;28;20037;-85
2022/07/28 06:42:20;;;;;;;3.75;2.47;;;;;;;;;;5035411;28;20036;-85
2022/07/28 06:44:45;;;;;;;5.18;2.75;;;;;;;;;;5016998;28;20044;-85
2022/07/28 06:47:11;;;;;;;4.30;2.63;;;;;;;;;;5034836;28;20481;-85
2022/07/28 06:49:36;;;;;;;3.00;2.63;;;;;;;;;;5017653;28;20029;-85
2022/07/28 06:52:02;;;;;;;3.72;2.50;;;;;;;;;;5035624;28;20055;-85
2022/07/28 06:54:27;;;;;;;5.32;3.00;;;;;;;;;;5034737;28;20036;-85
2022/07/28 06:56:53;;;;;;;4.28;2.80;;;;;;;;;;5017539;28;20042;-85
2022/07/28 06:59:18;;;;;;;7.50;2.95;;;;;;;;;;5017915;28;20504;-85
2022/07/28 07:01:44;;;;;;;6.25;3.25;;;;;;;;;;5035726;28;20038;-86
2022/07/28 07:04:09;;;;;;;5.32;3.38;;;;;;;;;;5034890;28;20029;-86
2022/07/28 07:06:35;;;;;;;7.85;3.20;;;;;;;;;;5017118;28;20065;-86
2022/07/28 07:09:01;;;;;;;5.32;2.92;;;;;;;;;;5016026;28;20037;-85
2022/07/28 07:11:27;;;;;;;3.78;3.00;;;;;;;;;;5016056;28;20043;-85
2022/07/28 07:13:53;;;;;;;4.05;3.22;;;;;;;;;;5034414;28;20116;-85
2022/07/28 07:16:18;;;;;;;8.65;3.53;;;;;;;;;;5018071;28;20037;-87
2022/07/28 07:18:44;;;;;;;7.43;3.03;;;;;;;;;;5035679;28;20060;-88
2022/07/28 07:21:09;;;;;;;4.15;2.97;;;;;;;;;;5036763;28;20074;-84
2022/07/28 07:23:35;;;;;;;8.75;3.20;;;;;;;;;;5034767;28;20082;-88
2022/07/28 07:26:02;;;;;;;7.70;3.47;;;;;;;;;;5033921;28;20033;-86
2022/07/28 07:28:27;;;;;;;4.95;3.13;;;;;;;;;;5033833;28;20044;-85
2022/07/28 07:30:53;;;;;;;4.05;3.28;;;;;;;;;;5034241;28;20037;-85
2022/07/28 07:33:19;;;;;;;5.57;3.05;;;;;;;;;;5016755;28;20450;-86
2022/07/28 07:35:44;;;;;;;5.47;3.03;;;;;;;;;;5033685;28;20033;-85
2022/07/28 07:38:10;;;;;;;4.75;3.35;;;;;;;;;;5017110;28;20060;-85
2022/07/28 07:40:36;;;;;;;4.28;3.10;;;;;;;;;;5035042;28;20091;-86
2022/07/28 07:43:02;;;;;;;5.07;3.10;;;;;;;;;;5035167;28;20033;-86
2022/07/28 07:45:28;;;;;;;6.32;3.30;;;;;;;;;;5037451;28;20120;-85
2022/07/28 07:47:54;;;;;;;4.70;3.40;;;;;;;;;;5036457;28;20067;-85
2022/07/28 07:50:19;;;;;;;5.63;3.22;;;;;;;;;;5037539;28;20604;-86
2022/07/28 07:52:45;;;;;;;5.97;3.55;;;;;;;;;;5038397;28;20379;-86
2022/07/28 07:55:10;;;;;;;10.05;3.15;;;;;;;;;;5038246;28;20045;-86
2022/07/28 07:57:36;;;;;;;6.85;3.17;;;;;;;;;;5038472;28;20049;-86
2022/07/28 08:00:03;;;;;;;5.63;3.15;;;;;;;;;;5037987;28;20041;-86
2022/07/28 08:02:29;;;;;;;7.53;3.30;;;;;;;;;;5039210;28;20037;-86
2022/07/28 08:04:55;;;;;;;3.65;3.20;;;;;;;;;;5039177;28;20079;-86
2022/07/28 08:07:20;;;;;;;4.40;3.20;;;;;;;;;;5038656;28;20360;-86
2022/07/28 08:09:46;;;;;;;4.53;3.60;;;;;;;;;;5036481;28;20037;-86
2022/07/28 08:12:11;;;;;;;5.45;3.60;;;;;;;;;;5038371;28;20038;-86
2022/07/28 08:14:37;;;;;;;5.13;3.13;;;;;;;;;;5038040;28;20029;-86
2022/07/28 08:17:03;;;;;;;4.57;3.10;;;;;;;;;;5038942;28;20040;-86
2022/07/28 08:19:28;;;;;;;5.85;3.20;;;;;;;;;;5037915;28;20529;-86
2022/07/28 08:21:54;;;;;;;4.13;3.10;;;;;;;;;;5020782;28;20701;-87
2022/07/28 08:24:19;;;;;;;6.35;3.22;;;;;;;;;;5038804;28;20486;-87
2022/07/28 08:26:45;;;;;;;6.43;2.92;;;;;;;;;;5040911;28;20087;-87
2022/07/28 08:29:11;;;;;;;5.47;3.35;;;;;;;;;;5041765;28;20033;-87
2022/07/28 08:31:36;;;;;;;5.32;3.10;;;;;;;;;;5039458;28;20042;-87
2022/07/28 08:34:02;;;;;;;4.13;2.95;;;;;;;;;;5039405;28;20029;-86
2022/07/28 08:36:27;;;;;;;5.35;3.13;;;;;;;;;;5039765;28;20056;-87
2022/07/28 08:38:53;;;;;;;8.07;3.00;;;;;;;;;;5022561;28;20504;-86
2022/07/28 08:41:28;;;;;;;6.65;3.17;;;;;;;;;;5040979;28;20029;-86
2022/07/28 08:43:55;;;;;;;5.50;3.13;;;;;;;;;;5042191;28;20059;-86
2022/07/28 08:46:22;;;;;;;4.50;2.88;;;;;;;;;;5040893;28;20021;-87
2022/07/28 08:48:49;;;;;;;4.68;2.90;;;;;;;;;;5040488;28;20039;-87
2022/07/28 08:51:14;;;;;;;8.10;2.88;;;;;;;;;;5023812;28;20040;-86
2022/07/28 08:53:42;;;;;;;5.85;3.17;;;;;;;;;;5022733;28;20033;-87
2022/07/28 08:56:12;;;;;;;6.20;3.33;;;;;;;;;;5038701;28;20108;-86
2022/07/28 08:58:38;;;;;;;3.47;2.88;;;;;;;;;;5022714;28;20060;-85
2022/07/28 09:01:06;;;;;;;6.25;3.42;;;;;;;;;;5039528;28;20553;-86
2022/07/28 09:03:31;;;;;;;4.90;3.20;;;;;;;;;;5022613;28;20482;-86
2022/07/28 09:05:57;;;;;;;4.78;3.40;;;;;;;;;;5022694;28;20117;-86
2022/07/28 09:08:23;;;;;;;4.55;3.50;;;;;;;;;;5038857;28;20053;-87
2022/07/28 09:10:49;;;;;;;7.20;3.60;;;;;;;;;;5040811;28;20426;-87
2022/07/28 09:13:16;;;;;;;8.40;4.50;;;;;;;;;;5040073;28;20576;-86
2022/07/28 09:15:45;;;;;;;5.85;3.90;;;;;;;;;;5021134;28;20040;-86
2022/07/28 09:18:15;;;;;;;7.35;4.43;;;;;;;;;;5022466;28;20033;-86
2022/07/28 09:20:42;;;;;;;6.20;4.72;;;;;;;;;;5039782;28;20052;-86
2022/07/28 09:23:08;;;;;;;5.35;4.85;;;;;;;;;;5039530;28;20037;-86
2022/07/28 09:25:34;;;;;;;7.93;4.88;;;;;;;;;;5039070;28;20048;-86
2022/07/28 09:28:10;;;;;;;9.20;5.40;;;;;;;;;;5039202;28;20045;-86
2022/07/28 09:30:39;;;;;;;7.75;5.57;;;;;;;;;;5005277;28;20031;-86
2022/07/28 09:33:22;;;;;;;8.00;5.43;;;;;;;;;;5039590;28;20124;-87
2022/07/28 09:35:52;;;;;;;;;;;;;;;;;;5021676;28;20033;-87
2022/07/28 09:38:19;;;;;;;6.97;5.20;;;;;;;;;;5021788;28;19913;-86
2022/07/28 09:40:59;;;;;;;7.50;5.43;;;;;;;;;;5021616;28;20021;-85
2022/07/28 09:43:38;;;;;;;8.38;5.22;;;;;;;;;;5039531;28;20042;-87
2022/07/28 09:46:10;;;;;;;7.25;4.97;;;;;;;;;;5039019;28;20022;-86
2022/07/28 09:48:49;;;;;;;10.83;5.40;;;;;;;;;;5039259;28;20033;-86
2022/07/28 09:51:17;;;;;;;10.15;5.55;;;;;;;;;;5039470;28;20275;-86
2022/07/28 09:53:43;;;;;;;8.00;5.28;;;;;;;;;;5020869;28;20032;-86
2022/07/28 09:56:10;;;;;;;10.80;5.32;;;;;;;;;;5039109;28;20033;-86
2022/07/28 09:58:36;;;;;;;6.82;4.95;;;;;;;;;;5005411;28;20097;-86
2022/07/28 10:01:14;;;;;;;8.40;5.00;;;;;;;;;;5041034;28;20037;-85
2022/07/28 10:03:42;;;;;;;10.23;5.20;;;;;;;;;;5039829;28;20037;-85
2022/07/28 10:06:13;;;;;;;8.85;5.20;;;;;;;;;;5021733;28;20494;-86
2022/07/28 10:08:40;;;;;;;8.75;4.97;;;;;;;;;;5038068;28;20033;-86
2022/07/28 10:11:06;;;;;;;6.97;4.85;;;;;;;;;;5022519;28;20120;-87
2022/07/28 10:13:31;;;;;;;8.43;5.40;;;;;;;;;;5021709;28;20063;-86
2022/07/28 10:16:09;;;;;;;9.75;5.00;;;;;;;;;;5036777;28;20730;-86
2022/07/28 10:18:35;;;;;;;7.15;5.05;;;;;;;;;;5037593;28;20037;-86
2022/07/28 10:21:07;;;;;;;6.15;4.63;;;;;;;;;;5038265;28;20506;-86
2022/07/28 10:23:36;;;;;;;9.77;5.35;;;;;;;;;;5038634;28;20418;-86
2022/07/28 10:26:05;;;;;;;7.53;5.45;;;;;;;;;;5037705;28;20028;-86
2022/07/28 10:28:33;;;;;;;7.13;4.80;;;;;;;;;;5039079;28;20052;-85
2022/07/28 10:31:01;;;;;;;7.82;4.53;;;;;;;;;;5019899;28;20520;-85
2022/07/28 10:33:30;;;;;;;8.23;4.75;;;;;;;;;;5039057;28;20081;-86
2022/07/28 10:35:58;;;;;;;6.70;4.93;;;;;;;;;;5019809;28;20040;-86
2022/07/28 10:38:35;;;;;;;6.18;4.85;;;;;;;;;;5038296;28;20525;-87
2022/07/28 10:41:02;;;;;;;6.15;5.15;;;;;;;;;;5020520;28;20041;-86
2022/07/28 10:43:30;;;;;;;9.38;5.10;;;;;;;;;;5020238;28;20063;-86
2022/07/28 10:45:58;;;;;;;7.68;4.88;;;;;;;;;;5018789;28;20176;-86
2022/07/28 10:48:24;;;;;;;7.53;5.07;;;;;;;;;;5038165;28;20033;-86
2022/07/28 10:50:51;;;;;;;8.60;5.13;;;;;;;;;;5039108;28;20100;-86
2022/07/28 10:53:28;;;;;;;6.50;4.60;;;;;;;;;;5038342;28;20043;-86
2022/07/28 10:56:01;;;;;;;8.02;5.00;;;;;;;;;;5037485;28;20046;-87
2022/07/28 10:58:46;;;;;;;7.38;5.18;;;;;;;;;;5036902;28;20033;-87
2022/07/28 11:01:40;;;;;;;6.15;4.72;;;;;;;;;;5017986;28;20074;-87
2022/07/28 11:04:06;;;;;;;7.38;4.50;;;;;;;;;;5034873;28;20048;-86
2022/07/28 11:06:39;;;;;;;7.05;4.63;;;;;;;;;;5037577;28;20025;-86
2022/07/28 11:09:16;;;;;;;6.00;4.17;;;;;;;;;;5043203;28;20037;-88
2022/07/28 11:11:44;;;;;;;6.53;4.60;;;;;;;;;;5025524;28;20037;-88
2022/07/28 11:14:21;;;;;;;6.72;4.70;;;;;;;;;;5041889;28;20034;-88
2022/07/28 11:16:48;;;;;;;7.80;4.95;;;;;;;;;;5041401;28;20470;-88
2022/07/28 11:19:15;;;;;;;8.07;5.03;;;;;;;;;;5045071;28;20033;-88
2022/07/28 11:22:20;;;;;;;7.07;4.68;;;;;;;;;;5046619;28;20040;-88
2022/07/28 11:25:00;;;;;;;9.73;5.03;;;;;;;;;;5029142;28;20040;-87
2022/07/28 11:27:38;;;;;;;6.55;4.40;;;;;;;;;;5047126;28;20471;-87
2022/07/28 11:30:07;;;;;;;6.80;4.68;;;;;;;;;;5029220;28;20034;-88
2022/07/28 11:32:52;;;;;;;6.05;4.53;;;;;;;;;;5047453;28;20030;-88
2022/07/28 11:35:25;;;;;;;6.05;4.32;;;;;;;;;;5047291;28;20040;-87
2022/07/28 11:38:00;;;;;;;;;;;;;;;;;;5028483;28;20053;-87
2022/07/28 11:40:39;;;;;;;5.53;4.28;;;;;;;;;;5044930;28;19919;-88
2022/07/28 11:43:20;;;;;;;5.57;3.83;;;;;;;;;;5026855;28;20080;-88
2022/07/28 11:46:08;;;;;;;7.03;4.10;;;;;;;;;;5044288;28;20029;-88
2022/07/28 11:48:35;;;;;;;5.72;4.50;;;;;;;;;;5046011;28;20044;-87
2022/07/28 11:51:03;;;;;;;6.95;4.55;;;;;;;;;;5045346;28;20029;-87
2022/07/28 11:53:35;;;;;;;7.75;4.35;;;;;;;;;;5044761;28;20095;-86
2022/07/28 11:56:09;;;;;;;8.77;4.25;;;;;;;;;;5042922;28;20060;-87
2022/07/28 11:58:34;;;;;;;7.13;4.45;;;;;;;;;;5025012;28;20425;-88
2022/07/28 12:01:15;;;;;;;5.30;3.50;;;;;;;;;;5043934;28;20032;-89
2022/07/28 12:03:42;;;;;;;5.00;3.40;;;;;;;;;;5045698;28;20084;-88
2022/07/28 12:06:09;;;;;;;6.25;3.47;;;;;;;;;;5027216;28;20029;-89
2022/07/28 12:08:56;;;;;;;6.07;3.63;;;;;;;;;;5043546;28;20033;-88
2022/07/28 12:11:23;;;;;;;6.25;4.47;;;;;;;;;;5043940;28;20049;-88
2022/07/28 12:14:02;;;;;;;7.63;4.13;;;;;;;;;;5043828;28;20029;-86
2022/07/28 12:16:33;;;;;;;5.45;3.90;;;;;;;;;;5042685;28;20041;-88
2022/07/28 12:19:00;;;;;;;9.15;4.22;;;;;;;;;;5044706;28;20037;-88
2022/07/28 12:21:37;;;;;;;8.35;3.85;;;;;;;;;;5044942;28;20026;-87
2022/07/28 12:24:04;;;;;;;4.95;3.65;;;;;;;;;;5044542;28;20041;-87
2022/07/28 12:26:34;;;;;;;3.78;3.38;;;;;;;;;;5046071;28;20627;-88
2022/07/28 12:29:00;;;;;;;5.35;4.10;;;;;;;;;;5044602;28;20037;-88
2022/07/28 12:31:31;;;;;;;5.60;3.67;;;;;;;;;;5025589;28;20065;-87
2022/07/28 12:33:57;;;;;;;8.77;4.47;;;;;;;;;;5025940;28;20033;-86
2022/07/28 12:36:24;;;;;;;7.72;3.85;;;;;;;;;;5045383;28;20087;-88
2022/07/28 12:38:50;;;;;;;5.47;4.10;;;;;;;;;;5043747;28;20041;-88
2022/07/28 12:41:16;;;;;;;5.32;4.10;;;;;;;;;;5024894;28;20075;-88
2022/07/28 12:43:53;;;;;;;5.00;3.90;;;;;;;;;;5043917;28;20033;-87
2022/07/28 12:46:27;;;;;;;5.75;3.92;;;;;;;;;;5041553;28;20026;-89
2022/07/28 12:48:54;;;;;;;6.55;4.00;;;;;;;;;;5041982;28;20048;-88
2022/07/28 12:51:40;;;;;;;7.00;4.30;;;;;;;;;;5042062;28;20124;-88
2022/07/28 12:54:08;;;;;;;4.93;3.65;;;;;;;;;;5041247;28;20045;-88
2022/07/28 12:56:49;;;;;;;9.13;4.00;;;;;;;;;;5028371;28;20038;-89
2022/07/28 12:59:17;;;;;;;4.88;3.90;;;;;;;;;;5050005;28;20124;-87
2022/07/28 13:01:43;;;;;;;8.55;4.10;;;;;;;;;;5043415;28;20030;-88
2022/07/28 13:04:09;;;;;;;6.85;3.80;;;;;;;;;;5051825;28;20041;-87
2022/07/28 13:06:35;;;;;;;8.13;4.00;;;;;;;;;;5053059;28;20025;-88
2022/07/28 13:09:01;;;;;;;6.13;3.63;;;;;;;;;;5035215;28;20071;-88
2022/07/28 13:11:30;;;;;;;4.30;3.53;;;;;;;;;;5054033;28;20084;-89
2022/07/28 13:13:56;;;;;;;10.63;3.88;;;;;;;;;;5049022;28;20037;-86
2022/07/28 13:16:24;;;;;;;3.88;3.38;;;;;;;;;;5040534;28;20167;-88
2022/07/28 13:18:54;;;;;;;5.88;3.42;;;;;;;;;;5022697;28;20048;-88
2022/07/28 13:21:43;;;;;;;6.72;3.70;;;;;;;;;;5042113;28;20041;-88
2022/07/28 13:24:17;;;;;;;8.13;3.60;;;;;;;;;;5035621;28;20053;-88
2022/07/28 13:26:43;;;;;;;5.15;3.20;;;;;;;;;;5042088;28;20076;-89
2022/07/28 13:29:09;;;;;;;4.68;3.45;;;;;;;;;;5023936;28;20033;-88
2022/07/28 13:31:35;;;;;;;4.13;3.30;;;;;;;;;;5040435;28;20041;-88
2022/07/28 13:34:05;;;;;;;7.82;3.58;;;;;;;;;;5022483;28;20037;-88
2022/07/28 13:36:30;;;;;;;4.28;3.38;;;;;;;;;;5023313;28;20025;-89
2022/07/28 13:38:56;;;;;;;8.38;3.30;;;;;;;;;;5040584;28;20087;-88
2022/07/28 13:41:22;;;;;;;4.65;3.55;;;;;;;;;;5039621;28;20037;-88
2022/07/28 13:43:47;;;;;;;4.13;3.30;;;;;;;;;;5040779;28;20033;-88
2022/07/28 13:46:14;;;;;;;4.82;3.10;;;;;;;;;;5023649;28;20542;-88
2022/07/28 13:48:41;;;;;;;5.45;3.20;;;;;;;;;;5041532;28;20039;-88
2022/07/28 13:51:09;;;;;;;6.43;3.40;;;;;;;;;;5038104;28;20033;-85
2022/07/28 13:53:35;;;;;;;6.25;3.40;;;;;;;;;;5040341;28;20509;-87
2022/07/28 13:56:01;;;;;;;4.82;3.30;;;;;;;;;;5038926;28;20646;-88
2022/07/28 13:58:26;;;;;;;5.28;3.58;;;;;;;;;;5040139;28;20048;-88
2022/07/28 14:00:52;;;;;;;7.25;3.25;;;;;;;;;;5039767;28;20041;-88
2022/07/28 14:03:17;;;;;;;5.53;3.10;;;;;;;;;;5039829;28;20474;-87
2022/07/28 14:05:43;;;;;;;4.10;3.22;;;;;;;;;;5038530;28;20037;-88
2022/07/28 14:08:09;;;;;;;3.30;3.00;;;;;;;;;;5040185;28;20048;-87
2022/07/28 14:10:34;;;;;;;6.43;3.40;;;;;;;;;;5021502;28;20474;-88
2022/07/28 14:13:00;;;;;;;6.07;2.95;;;;;;;;;;5024558;28;20048;-88
2022/07/28 14:15:26;;;;;;;3.83;2.80;;;;;;;;;;5039027;28;20033;-87
2022/07/28 14:17:52;;;;;;;8.27;3.38;;;;;;;;;;5044526;28;20038;-86
2022/07/28 14:20:17;;;;;;;3.83;2.88;;;;;;;;;;5048137;28;20033;-88
2022/07/28 14:22:43;;;;;;;3.53;2.70;;;;;;;;;;5031197;28;20096;-87
2022/07/28 14:25:10;;;;;;;3.75;2.60;;;;;;;;;;5011193;28;20040;-88
2022/07/28 14:27:35;;;;;;;4.72;2.90;;;;;;;;;;5052224;28;20051;-88
2022/07/28 14:30:02;;;;;;;4.38;3.08;;;;;;;;;;5034142;28;20095;-88
2022/07/28 14:32:27;;;;;;;3.25;2.70;;;;;;;;;;5050115;28;20029;-87
2022/07/28 14:34:53;;;;;;;5.35;2.60;;;;;;;;;;5051658;28;20055;-87
2022/07/28 14:37:18;;;;;;;4.90;2.70;;;;;;;;;;5032504;28;20040;-87
2022/07/28 14:39:44;;;;;;;4.82;2.88;;;;;;;;;;5051380;28;20058;-87
2022/07/28 14:42:10;;;;;;;3.55;2.75;;;;;;;;;;5049053;28;20528;-87
2022/07/28 14:44:35;;;;;;;6.72;2.83;;;;;;;;;;5031231;28;20036;-88
2022/07/28 14:47:01;;;;;;;7.20;2.80;;;;;;;;;;5051481;28;20164;-87
2022/07/28 14:49:26;;;;;;;3.97;2.70;;;;;;;;;;5046111;28;20122;-88
2022/07/28 14:51:54;;;;;;;5.90;2.63;;;;;;;;;;5051646;28;20036;-87